createdAt,value
2018-12-12T00:00:50.212Z,8.63
2018-12-12T00:03:16.741Z,9.23
2018-12-12T00:05:43.314Z,10.47
2018-12-12T00:08:09.908Z,8.70
2018-12-12T00:10:36.490Z,9.50
2018-12-12T00:13:03.193Z,9.47
2018-12-12T00:15:30.132Z,10.20
2018-12-12T00:17:57.035Z,9.63
2018-12-12T00:20:23.643Z,10.77
2018-12-12T00:22:50.006Z,9.60
2018-12-12T00:25:16.499Z,9.53
2018-12-12T00:27:42.994Z,8.43
2018-12-12T00:30:09.458Z,9.63
2018-12-12T00:32:38.794Z,10.07
2018-12-12T00:35:05.383Z,9.10
2018-12-12T00:37:31.971Z,9.73
2018-12-12T00:39:58.555Z,10.03
2018-12-12T00:42:25.267Z,10.27
2018-12-12T00:44:51.979Z,9.40
2018-12-12T00:47:18.455Z,9.87
2018-12-12T00:49:44.948Z,10.17
2018-12-12T00:52:11.545Z,10.37
2018-12-12T00:54:38.335Z,9.97
2018-12-12T00:57:04.958Z,9.87
2018-12-12T00:59:31.552Z,9.63
2018-12-12T01:01:58.250Z,10.80
2018-12-12T01:04:24.738Z,9.77
2018-12-12T01:06:51.323Z,9.10
2018-12-12T01:09:17.830Z,10.43
2018-12-12T01:11:46.335Z,8.80
2018-12-12T01:14:12.707Z,9.53
2018-12-12T01:16:39.082Z,9.27
2018-12-12T01:19:05.677Z,8.90
2018-12-12T01:21:32.395Z,10.37
2018-12-12T01:23:59.006Z,9.37
2018-12-12T01:26:25.507Z,9.13
2018-12-12T01:28:52.102Z,9.80
2018-12-12T01:31:18.699Z,10.07
2018-12-12T01:33:45.058Z,11.27
2018-12-12T01:36:11.656Z,11.27
2018-12-12T01:38:38.138Z,10.63
2018-12-12T01:41:04.735Z,9.97
2018-12-12T01:43:31.227Z,10.30
2018-12-12T01:45:57.820Z,9.53
2018-12-12T01:48:24.338Z,9.47
2018-12-12T01:50:50.690Z,10.83
2018-12-12T01:53:17.306Z,10.83
2018-12-12T01:55:43.887Z,10.23
2018-12-12T01:58:10.607Z,9.90
2018-12-12T02:00:37.470Z,10.17
2018-12-12T02:03:03.834Z,9.57
2018-12-12T02:05:30.395Z,10.00
2018-12-12T02:07:56.991Z,9.37
2018-12-12T02:10:23.767Z,10.27
2018-12-12T02:12:52.271Z,10.10
2018-12-12T02:15:18.782Z,9.70
2018-12-12T02:17:48.246Z,10.40
2018-12-12T02:20:14.714Z,9.80
2018-12-12T02:22:41.286Z,9.93
2018-12-12T02:25:08.018Z,10.23
2018-12-12T02:27:34.615Z,9.83
2018-12-12T02:30:01.001Z,10.70
2018-12-12T02:32:27.527Z,10.67
2018-12-12T02:34:54.119Z,11.27
2018-12-12T02:37:20.594Z,11.73
2018-12-12T02:39:47.218Z,10.47
2018-12-12T02:42:13.880Z,9.97
2018-12-12T02:44:40.605Z,10.57
2018-12-12T02:47:07.223Z,10.90
2018-12-12T02:49:33.981Z,10.07
2018-12-12T02:52:00.531Z,11.07
2018-12-12T02:54:27.101Z,11.23
2018-12-12T02:56:53.704Z,10.97
2018-12-12T02:59:20.286Z,10.70
2018-12-12T03:01:46.763Z,10.73
2018-12-12T03:04:13.213Z,11.70
2018-12-12T03:06:39.574Z,11.00
2018-12-12T03:09:06.146Z,11.83
2018-12-12T03:11:32.638Z,11.77
2018-12-12T03:13:59.330Z,11.50
2018-12-12T03:16:25.817Z,11.87
2018-12-12T03:18:52.703Z,11.33
2018-12-12T03:21:19.318Z,12.33
2018-12-12T03:23:45.731Z,12.13
2018-12-12T03:26:12.335Z,11.10
2018-12-12T03:28:38.822Z,12.17
2018-12-12T03:31:05.322Z,11.27
2018-12-12T03:33:31.907Z,11.63
2018-12-12T03:35:58.291Z,11.80
2018-12-12T03:38:24.869Z,10.53
2018-12-12T03:40:51.702Z,11.47
2018-12-12T03:43:18.195Z,12.13
2018-12-12T03:45:44.798Z,11.20
2018-12-12T03:48:11.391Z,12.03
2018-12-12T03:50:37.920Z,10.27
2018-12-12T03:53:04.383Z,11.13
2018-12-12T03:55:30.871Z,12.23
2018-12-12T03:57:57.655Z,11.47
2018-12-12T04:00:24.029Z,11.07
2018-12-12T04:02:50.851Z,10.90
2018-12-12T04:05:17.434Z,11.10
2018-12-12T04:07:44.139Z,10.50
2018-12-12T04:10:10.512Z,10.60
2018-12-12T04:12:37.113Z,11.53
2018-12-12T04:15:03.691Z,10.40
2018-12-12T04:17:30.292Z,10.57
2018-12-12T04:19:56.882Z,10.70
2018-12-12T04:22:23.562Z,11.80
2018-12-12T04:24:50.353Z,12.17
2018-12-12T04:27:16.946Z,9.67
2018-12-12T04:29:43.523Z,10.73
2018-12-12T04:32:10.237Z,10.87
2018-12-12T04:34:36.833Z,11.00
2018-12-12T04:37:03.515Z,11.47
2018-12-12T04:39:29.898Z,11.43
2018-12-12T04:41:56.413Z,12.23
2018-12-12T04:44:22.991Z,11.97
2018-12-12T04:46:49.585Z,12.07
2018-12-12T04:49:16.063Z,10.93
2018-12-12T04:51:42.786Z,11.20
2018-12-12T04:54:09.154Z,10.57
2018-12-12T04:56:35.509Z,11.17
2018-12-12T04:59:02.286Z,10.70
2018-12-12T05:01:28.872Z,10.63
2018-12-12T05:03:55.344Z,10.93
2018-12-12T05:06:21.827Z,11.67
2018-12-12T05:08:48.183Z,9.60
2018-12-12T05:11:14.774Z,11.13
2018-12-12T05:13:41.290Z,10.30
2018-12-12T05:16:07.886Z,9.37
2018-12-12T05:18:34.391Z,10.83
2018-12-12T05:21:00.875Z,11.33
2018-12-12T05:23:27.383Z,10.53
2018-12-12T05:25:53.748Z,10.77
2018-12-12T05:28:20.123Z,11.77
2018-12-12T05:30:46.738Z,10.73
2018-12-12T05:33:13.343Z,10.43
2018-12-12T05:35:39.931Z,11.23
2018-12-12T05:38:06.536Z,9.33
2018-12-12T05:40:33.325Z,10.27
2018-12-12T05:42:59.711Z,11.20
2018-12-12T05:45:26.388Z,10.37
2018-12-12T05:47:52.862Z,9.87
2018-12-12T05:50:19.245Z,10.40
2018-12-12T05:52:45.760Z,9.83
2018-12-12T05:55:12.234Z,9.50
2018-12-12T05:57:38.934Z,9.97
2018-12-12T06:00:06.139Z,9.67
2018-12-12T06:02:33.842Z,10.03
2018-12-12T06:05:00.343Z,9.23
2018-12-12T06:07:26.937Z,10.70
2018-12-12T06:09:55.787Z,8.47
2018-12-12T06:12:22.150Z,8.70
2018-12-12T06:14:48.757Z,8.80
2018-12-12T06:17:15.475Z,8.67
2018-12-12T06:19:42.556Z,9.43
2018-12-12T06:22:09.434Z,8.80
2018-12-12T06:24:36.243Z,8.57
2018-12-12T06:27:02.723Z,8.30
2018-12-12T06:29:29.318Z,8.00
2018-12-12T06:31:55.999Z,7.93
2018-12-12T06:34:22.610Z,7.50
2018-12-12T06:36:49.207Z,7.73
2018-12-12T06:39:15.807Z,7.97
2018-12-12T06:41:42.507Z,7.73
2018-12-12T06:44:09.239Z,7.53
2018-12-12T06:46:35.610Z,7.90
2018-12-12T06:49:02.087Z,7.43
2018-12-12T06:51:28.591Z,7.57
2018-12-12T06:53:55.291Z,7.50
2018-12-12T06:56:21.766Z,8.30
2018-12-12T06:58:51.276Z,8.73
2018-12-12T07:01:17.748Z,7.73
2018-12-12T07:03:44.330Z,7.17
2018-12-12T07:06:10.688Z,8.53
2018-12-12T07:08:37.042Z,7.60
2018-12-12T07:11:03.629Z,7.90
2018-12-12T07:13:35.710Z,7.80
2018-12-12T07:15:58.710Z,7.30
2018-12-12T07:18:25.071Z,7.80
2018-12-12T07:20:51.531Z,7.50
2018-12-12T07:23:18.007Z,7.10
2018-12-12T07:25:44.516Z,7.67
2018-12-12T07:28:10.865Z,7.30
2018-12-12T07:30:37.456Z,7.37
2018-12-12T07:33:03.918Z,7.10
2018-12-12T07:35:30.622Z,7.10
2018-12-12T07:37:56.987Z,8.13
2018-12-12T07:40:23.588Z,7.93
2018-12-12T07:42:50.058Z,7.97
2018-12-12T07:45:16.714Z,7.30
2018-12-12T07:47:43.483Z,7.07
2018-12-12T07:50:09.903Z,7.57
2018-12-12T07:52:36.610Z,8.30
2018-12-12T07:55:03.069Z,6.63
2018-12-12T07:57:29.666Z,7.07
2018-12-12T07:59:56.152Z,6.93
2018-12-12T08:02:22.843Z,7.40
2018-12-12T08:04:49.325Z,7.47
2018-12-12T08:07:15.923Z,6.77
2018-12-12T08:09:42.513Z,7.33
2018-12-12T08:12:09.878Z,7.07
2018-12-12T08:14:36.643Z,6.87
2018-12-12T08:17:03.260Z,6.47
2018-12-12T08:19:29.750Z,7.50
2018-12-12T08:21:56.234Z,6.80
2018-12-12T08:24:22.829Z,6.40
2018-12-12T08:26:49.430Z,6.40
2018-12-12T08:29:16.029Z,6.00
2018-12-12T08:31:42.797Z,7.23
2018-12-12T08:34:09.378Z,5.80
2018-12-12T08:36:36.093Z,6.40
2018-12-12T08:39:04.207Z,6.50
2018-12-12T08:41:30.708Z,6.83
2018-12-12T08:43:57.359Z,5.90
2018-12-12T08:46:23.751Z,6.13
2018-12-12T08:48:50.246Z,5.17
2018-12-12T08:51:16.727Z,5.87
2018-12-12T08:53:43.217Z,5.70
2018-12-12T08:56:09.703Z,5.30
2018-12-12T08:58:36.199Z,5.30
2018-12-12T09:01:02.825Z,5.00
2018-12-12T09:03:29.447Z,5.47
2018-12-12T09:05:55.954Z,5.50
2018-12-12T09:08:22.425Z,5.87
2018-12-12T09:10:49.087Z,5.77
2018-12-12T09:13:15.701Z,5.93
2018-12-12T09:15:42.302Z,5.43
2018-12-12T09:18:08.793Z,5.70
2018-12-12T09:20:35.371Z,5.93
2018-12-12T09:23:01.970Z,5.93
2018-12-12T09:25:28.425Z,6.03
2018-12-12T09:27:55.027Z,5.40
2018-12-12T09:30:21.381Z,5.37
2018-12-12T09:32:48.103Z,5.70
2018-12-12T09:35:14.682Z,6.23
2018-12-12T09:37:41.444Z,5.40
2018-12-12T09:40:07.904Z,6.20
2018-12-12T09:42:34.498Z,5.87
2018-12-12T09:45:01.153Z,5.93
2018-12-12T09:47:28.185Z,5.70
2018-12-12T09:49:54.994Z,6.57
2018-12-12T09:52:21.415Z,6.03
2018-12-12T09:54:48.016Z,5.70
2018-12-12T09:57:14.506Z,5.73
2018-12-12T09:59:40.994Z,5.90
2018-12-12T10:02:07.483Z,5.90
2018-12-12T10:04:33.996Z,5.97
2018-12-12T10:07:00.583Z,5.83
2018-12-12T10:09:28.255Z,5.73
2018-12-12T10:11:55.074Z,6.23
2018-12-12T10:14:21.826Z,6.33
2018-12-12T10:16:48.416Z,5.93
2018-12-12T10:19:15.019Z,5.60
2018-12-12T10:21:41.715Z,5.53
2018-12-12T10:24:08.302Z,5.30
2018-12-12T10:26:34.775Z,6.27
2018-12-12T10:29:01.375Z,5.97
2018-12-12T10:31:28.267Z,5.50
2018-12-12T10:33:54.772Z,5.00
2018-12-12T10:36:21.230Z,4.50
2018-12-12T10:38:47.590Z,5.00
2018-12-12T10:41:14.189Z,4.83
2018-12-12T10:43:40.666Z,4.47
2018-12-12T10:46:07.274Z,4.73
2018-12-12T10:48:33.902Z,5.23
2018-12-12T10:51:00.534Z,4.70
2018-12-12T10:53:27.018Z,4.43
2018-12-12T10:55:53.490Z,4.37
2018-12-12T10:58:20.086Z,4.70
2018-12-12T11:00:48.622Z,4.33
2018-12-12T11:03:17.166Z,4.87
2018-12-12T11:05:43.897Z,4.17
2018-12-12T11:08:10.478Z,4.60
2018-12-12T11:10:37.396Z,4.23
2018-12-12T11:13:03.862Z,7.60
2018-12-12T11:15:30.585Z,4.30
2018-12-12T11:17:57.064Z,4.30
2018-12-12T11:20:23.658Z,3.90
2018-12-12T11:22:50.127Z,3.80
2018-12-12T11:25:16.711Z,3.70
2018-12-12T11:27:43.219Z,4.30
2018-12-12T11:30:09.798Z,3.83
2018-12-12T11:32:36.299Z,4.30
2018-12-12T11:35:03.500Z,3.73
2018-12-12T11:37:30.040Z,4.07
2018-12-12T11:39:56.524Z,4.13
2018-12-12T11:42:23.010Z,4.20
2018-12-12T11:44:49.602Z,4.33
2018-12-12T11:47:16.091Z,3.63
2018-12-12T11:49:42.791Z,3.93
2018-12-12T11:52:09.174Z,4.13
2018-12-12T11:54:35.866Z,4.00
2018-12-12T11:57:02.666Z,4.27
2018-12-12T11:59:29.140Z,4.10
2018-12-12T12:01:55.635Z,4.47
2018-12-12T12:04:22.126Z,4.03
2018-12-12T12:06:48.626Z,4.20
2018-12-12T12:09:14.987Z,3.33
2018-12-12T12:11:41.793Z,3.43
2018-12-12T12:14:08.377Z,2.90
2018-12-12T12:16:34.978Z,3.00
2018-12-12T12:19:01.619Z,2.50
2018-12-12T12:21:28.214Z,2.23
2018-12-12T12:23:54.702Z,2.50
2018-12-12T12:26:21.271Z,2.50
2018-12-12T12:28:47.766Z,2.73
2018-12-12T12:31:14.247Z,2.50
2018-12-12T12:33:41.247Z,2.60
2018-12-12T12:36:09.443Z,2.53
2018-12-12T12:38:35.932Z,2.67
2018-12-12T12:41:02.411Z,2.30
2018-12-12T12:43:28.899Z,2.30
2018-12-12T12:45:55.392Z,2.00
2018-12-12T12:48:21.889Z,2.20
2018-12-12T12:50:48.482Z,2.30
2018-12-12T12:53:14.966Z,2.27
2018-12-12T12:55:41.458Z,2.33
2018-12-12T12:58:08.055Z,2.50
2018-12-12T13:00:34.654Z,2.40
2018-12-12T13:03:01.255Z,2.70
2018-12-12T13:05:27.849Z,2.20
2018-12-12T13:07:54.584Z,2.40
2018-12-12T13:10:21.384Z,2.30
2018-12-12T13:12:48.274Z,2.90
2018-12-12T13:15:15.263Z,2.57
2018-12-12T13:17:41.874Z,2.20
2018-12-12T13:20:08.571Z,2.70
2018-12-12T13:22:34.963Z,2.20
2018-12-12T13:25:01.563Z,2.50
2018-12-12T13:27:28.141Z,2.80
2018-12-12T13:29:54.740Z,2.87
2018-12-12T13:32:21.323Z,2.83
2018-12-12T13:34:47.931Z,2.50
2018-12-12T13:37:14.521Z,2.67
2018-12-12T13:39:40.893Z,2.30
2018-12-12T13:42:07.392Z,2.30
2018-12-12T13:44:34.099Z,1.90
2018-12-12T13:47:00.585Z,2.23
2018-12-12T13:49:27.184Z,2.30
2018-12-12T13:51:53.911Z,2.20
2018-12-12T13:54:20.406Z,2.30
2018-12-12T13:56:46.888Z,2.63
2018-12-12T13:59:13.498Z,2.80
2018-12-12T14:01:40.172Z,2.40
2018-12-12T14:04:06.766Z,2.67
2018-12-12T14:06:33.135Z,3.30
2018-12-12T14:08:59.723Z,3.63
2018-12-12T14:11:26.214Z,4.40
2018-12-12T14:13:52.914Z,3.40
2018-12-12T14:16:19.431Z,3.47
2018-12-12T14:18:46.018Z,2.80
2018-12-12T14:21:12.508Z,3.07
2018-12-12T14:23:39.094Z,2.87
2018-12-12T14:26:05.697Z,4.40
2018-12-12T14:28:32.197Z,2.63
2018-12-12T14:30:58.792Z,2.87
2018-12-12T14:33:25.370Z,2.33
2018-12-12T14:35:51.962Z,2.67
2018-12-12T14:38:18.346Z,2.30
2018-12-12T14:40:44.843Z,2.57
2018-12-12T14:43:11.430Z,2.30
2018-12-12T14:45:38.150Z,2.50
2018-12-12T14:48:04.636Z,2.97
2018-12-12T14:50:31.003Z,3.00
2018-12-12T14:52:57.355Z,2.70
2018-12-12T14:55:23.902Z,3.00
2018-12-12T14:57:50.490Z,3.27
2018-12-12T15:00:16.639Z,3.10
2018-12-12T15:02:43.258Z,3.00
2018-12-12T15:05:09.841Z,2.90
2018-12-12T15:07:36.546Z,2.87
2018-12-12T15:10:03.698Z,2.73
2018-12-12T15:12:30.296Z,2.37
2018-12-12T15:14:56.870Z,2.70
2018-12-12T15:17:23.362Z,2.63
2018-12-12T15:19:49.944Z,2.47
2018-12-12T15:22:16.563Z,2.27
2018-12-12T15:24:43.155Z,2.03
2018-12-12T15:27:09.510Z,2.00
2018-12-12T15:29:36.207Z,2.10
2018-12-12T15:32:03.004Z,2.37
2018-12-12T15:34:29.495Z,1.97
2018-12-12T15:36:55.978Z,2.00
2018-12-12T15:39:22.575Z,2.40
2018-12-12T15:41:49.175Z,2.43
2018-12-12T15:44:15.734Z,2.30
2018-12-12T15:46:42.324Z,2.30
2018-12-12T15:49:08.802Z,2.07
2018-12-12T15:51:35.319Z,2.33
2018-12-12T15:54:01.910Z,2.53
2018-12-12T15:56:28.490Z,2.57
2018-12-12T15:58:55.092Z,3.20
2018-12-12T16:01:21.783Z,2.00
2018-12-12T16:03:48.383Z,1.90
2018-12-12T16:06:14.743Z,2.00
2018-12-12T16:08:41.233Z,2.00
2018-12-12T16:11:08.421Z,2.00
2018-12-12T16:13:35.336Z,2.40
2018-12-12T16:16:01.822Z,2.00
2018-12-12T16:18:28.527Z,1.93
2018-12-12T16:20:55.006Z,2.20
2018-12-12T16:23:21.354Z,2.43
2018-12-12T16:25:47.950Z,2.17
2018-12-12T16:28:14.539Z,2.10
2018-12-12T16:30:41.243Z,2.03
2018-12-12T16:33:07.726Z,2.07
2018-12-12T16:35:34.308Z,1.90
2018-12-12T16:38:00.850Z,2.20
2018-12-12T16:40:27.313Z,2.10
2018-12-12T16:42:53.774Z,1.90
2018-12-12T16:45:20.374Z,2.20
2018-12-12T16:47:46.960Z,2.10
2018-12-12T16:50:13.339Z,2.10
2018-12-12T16:52:39.850Z,2.10
2018-12-12T16:55:06.347Z,2.03
2018-12-12T16:57:33.599Z,2.57
2018-12-12T17:00:00.325Z,1.87
2018-12-12T17:02:26.924Z,2.00
2018-12-12T17:04:53.626Z,2.03
2018-12-12T17:07:20.102Z,2.67
2018-12-12T17:09:46.739Z,3.00
2018-12-12T17:12:13.218Z,3.30
2018-12-12T17:14:39.710Z,3.97
2018-12-12T17:17:06.207Z,2.80
2018-12-12T17:19:32.698Z,2.40
2018-12-12T17:21:59.290Z,2.70
2018-12-12T17:24:25.749Z,2.77
2018-12-12T17:26:52.343Z,2.93
2018-12-12T17:29:18.842Z,3.03
2018-12-12T17:31:45.427Z,3.00
2018-12-12T17:34:11.907Z,3.00
2018-12-12T17:36:38.499Z,2.87
2018-12-12T17:39:05.390Z,3.33
2018-12-12T17:41:31.918Z,2.83
2018-12-12T17:43:58.617Z,3.60
2018-12-12T17:46:24.975Z,3.33
2018-12-12T17:48:51.458Z,3.13
2018-12-12T17:51:18.062Z,3.17
2018-12-12T17:53:44.417Z,3.70
2018-12-12T17:56:10.923Z,3.67
2018-12-12T17:58:37.399Z,3.43
2018-12-12T18:01:04.003Z,3.93
2018-12-12T18:03:30.492Z,3.43
2018-12-12T18:05:57.083Z,3.87
2018-12-12T18:08:23.770Z,4.20
2018-12-12T18:10:50.263Z,4.10
2018-12-12T18:13:16.901Z,4.57
2018-12-12T18:15:43.491Z,4.50
2018-12-12T18:18:10.000Z,5.90
2018-12-12T18:20:36.472Z,5.10
2018-12-12T18:23:03.088Z,5.80
2018-12-12T18:25:29.574Z,8.07
2018-12-12T18:27:56.066Z,6.27
2018-12-12T18:30:22.647Z,5.57
2018-12-12T18:32:49.246Z,4.93
2018-12-12T18:35:21.742Z,4.57
2018-12-12T18:37:44.336Z,4.37
2018-12-12T18:40:10.914Z,4.37
2018-12-12T18:42:37.584Z,4.40
2018-12-12T18:45:04.154Z,4.97
2018-12-12T18:47:30.863Z,4.27
2018-12-12T18:49:57.468Z,4.97
2018-12-12T18:52:24.066Z,4.87
2018-12-12T18:54:50.562Z,5.33
2018-12-12T18:57:17.158Z,4.87
2018-12-12T18:59:43.746Z,6.03
2018-12-12T19:02:10.255Z,9.80
2018-12-12T19:04:36.739Z,8.13
2018-12-12T19:07:03.198Z,6.07
2018-12-12T19:09:29.694Z,7.03
2018-12-12T19:11:56.186Z,5.80
2018-12-12T19:14:22.667Z,5.63
2018-12-12T19:16:49.146Z,5.77
2018-12-12T19:19:15.630Z,5.97
2018-12-12T19:21:42.106Z,5.87
2018-12-12T19:24:09.625Z,5.47
2018-12-12T19:26:35.995Z,6.33
2018-12-12T19:29:02.831Z,5.27
2018-12-12T19:31:29.425Z,5.80
2018-12-12T19:33:56.033Z,5.43
2018-12-12T19:36:25.197Z,10.70
2018-12-12T19:38:51.810Z,12.00
2018-12-12T19:41:18.279Z,14.43
2018-12-12T19:43:44.770Z,10.53
2018-12-12T19:46:11.254Z,13.00
2018-12-12T19:48:37.851Z,18.10
2018-12-12T19:51:04.463Z,13.13
2018-12-12T19:53:30.963Z,10.27
2018-12-12T19:55:57.478Z,9.20
2018-12-12T19:58:23.864Z,9.77
2018-12-12T20:00:50.446Z,11.03
2018-12-12T20:03:17.444Z,12.57
2018-12-12T20:05:43.938Z,10.53
2018-12-12T20:08:10.426Z,11.30
2018-12-12T20:10:36.804Z,11.20
2018-12-12T20:13:03.298Z,11.60
2018-12-12T20:15:31.727Z,12.07
2018-12-12T20:17:58.323Z,11.20
2018-12-12T20:20:24.823Z,11.50
2018-12-12T20:22:51.539Z,10.37
2018-12-12T20:25:18.141Z,7.43
2018-12-12T20:27:44.512Z,6.20
2018-12-12T20:30:11.186Z,5.73
2018-12-12T20:32:37.774Z,4.90
2018-12-12T20:35:04.511Z,5.30
2018-12-12T20:37:30.981Z,4.97
2018-12-12T20:39:57.481Z,4.87
2018-12-12T20:42:24.060Z,4.87
2018-12-12T20:44:50.553Z,6.33
2018-12-12T20:47:17.146Z,6.80
2018-12-12T20:49:43.750Z,9.57
2018-12-12T20:52:10.366Z,11.87
2018-12-12T20:54:36.951Z,11.57
2018-12-12T20:57:03.444Z,10.73
2018-12-12T20:59:29.945Z,11.73
2018-12-12T21:01:56.431Z,9.38
2018-12-12T21:04:22.968Z,7.47
2018-12-12T21:06:49.644Z,7.10
2018-12-12T21:09:16.126Z,6.87
2018-12-12T21:11:42.718Z,6.97
2018-12-12T21:14:09.247Z,6.73
2018-12-12T21:16:35.767Z,9.37
2018-12-12T21:19:02.253Z,13.10
2018-12-12T21:21:28.778Z,13.00
2018-12-12T21:23:55.358Z,11.43
2018-12-12T21:26:22.034Z,10.97
2018-12-12T21:28:48.526Z,10.27
2018-12-12T21:31:15.015Z,9.43
2018-12-12T21:33:41.507Z,8.97
2018-12-12T21:36:08.112Z,8.80
2018-12-12T21:38:34.594Z,9.60
2018-12-12T21:41:01.114Z,8.60
2018-12-12T21:43:27.514Z,8.23
2018-12-12T21:45:54.015Z,10.40
2018-12-12T21:48:20.504Z,9.87
2018-12-12T21:50:46.998Z,10.40
2018-12-12T21:53:13.496Z,10.03
2018-12-12T21:55:40.080Z,11.03
2018-12-12T21:58:06.674Z,10.33
2018-12-12T22:00:34.524Z,10.37
2018-12-12T22:03:01.237Z,10.03
2018-12-12T22:05:27.752Z,10.73
2018-12-12T22:07:54.351Z,9.53
2018-12-12T22:10:20.827Z,10.67
2018-12-12T22:12:47.305Z,9.97
2018-12-12T22:15:13.791Z,9.90
2018-12-12T22:17:40.263Z,8.73
2018-12-12T22:20:06.865Z,8.87
2018-12-12T22:22:33.504Z,9.27
2018-12-12T22:25:00.094Z,9.47
2018-12-12T22:27:26.797Z,9.43
2018-12-12T22:29:53.394Z,9.73
2018-12-12T22:32:19.886Z,9.00
2018-12-12T22:34:46.357Z,9.53
2018-12-12T22:37:12.847Z,9.10
2018-12-12T22:39:39.443Z,10.07
2018-12-12T22:42:06.034Z,10.40
2018-12-12T22:44:32.382Z,10.00
2018-12-12T22:46:59.715Z,9.37
2018-12-12T22:49:26.299Z,8.47
2018-12-12T22:51:52.658Z,9.10
2018-12-12T22:54:19.287Z,8.80
2018-12-12T22:56:45.874Z,9.13
2018-12-12T22:59:12.380Z,9.00
2018-12-12T23:01:38.872Z,8.53
2018-12-12T23:04:05.529Z,8.97
2018-12-12T23:06:31.887Z,8.90
2018-12-12T23:08:58.261Z,8.90
2018-12-12T23:11:25.489Z,9.30
2018-12-12T23:13:52.196Z,9.33
2018-12-12T23:16:18.795Z,8.77
2018-12-12T23:18:45.428Z,8.67
2018-12-12T23:21:11.902Z,9.10
2018-12-12T23:23:38.575Z,8.97
2018-12-12T23:26:04.971Z,10.07
2018-12-12T23:28:31.562Z,7.90
2018-12-12T23:30:58.255Z,8.50
2018-12-12T23:33:24.850Z,7.90
2018-12-12T23:35:51.426Z,8.30
2018-12-12T23:38:17.813Z,8.57
2018-12-12T23:40:44.419Z,9.43
2018-12-12T23:43:10.882Z,8.77
2018-12-12T23:45:37.482Z,8.97
2018-12-12T23:48:03.973Z,9.33
2018-12-12T23:50:30.655Z,10.70
2018-12-12T23:52:57.132Z,9.60
2018-12-12T23:55:23.754Z,9.23
2018-12-12T23:57:50.333Z,9.20
